Time,TemperatureF,DewpointF,PressureIn,WindDirection,WindDirectionDegrees,WindSpeedMPH,WindSpeedGustMPH,Humidity,HourlyPrecipIn,Conditions,Clouds,dailyrainin,SoftwareType,DateUTC
2013-05-17 00:00:00,59.5,40.9,29.91,East,90,3.0,7.0,50,0.00,,OVC180,0.00,VWS V14.01,2013-05-17 05:00:00,
2013-05-17 00:03:00,59.6,41.0,29.91,East,89,8.0,9.0,50,0.00,,,0.00,weatherlink.com 1.10,2013-05-17 05:03:00,
2013-05-17 00:18:00,59.2,41.0,29.90,ESE,109,0.0,5.0,51,0.00,,,0.00,weatherlink.com 1.10,2013-05-17 05:18:00,
2013-05-17 00:30:00,59.1,41.5,29.90,ESE,112,4.0,9.0,52,0.00,,OVC180,0.00,VWS V14.01,2013-05-17 05:30:00,
2013-05-17 00:33:00,59.0,41.0,29.90,East,85,7.0,7.0,52,0.00,,,0.00,weatherlink.com 1.10,2013-05-17 05:33:00,
2013-05-17 00:48:00,59.9,40.0,29.90,ESE,119,3.0,9.0,49,0.00,,,0.00,weatherlink.com 1.10,2013-05-17 05:48:00,
2013-05-17 01:00:00,59.9,41.2,29.90,ESE,112,4.0,11.0,50,0.00,,OVC180,0.00,VWS V14.01,2013-05-17 06:00:00,
2013-05-17 01:03:00,59.9,41.0,29.90,East,92,5.0,7.0,50,0.00,,,0.00,weatherlink.com 1.10,2013-05-17 06:03:00,
2013-05-17 01:18:00,59.7,41.0,29.90,East,98,2.0,7.0,50,0.00,,,0.00,weatherlink.com 1.10,2013-05-17 06:18:00,
2013-05-17 01:30:00,59.6,41.0,29.90,East,90,3.0,9.0,50,0.00,,OVC180,0.00,VWS V14.01,2013-05-17 06:30:00,
2013-05-17 01:33:00,59.6,41.0,29.89,ESE,103,5.0,7.0,50,0.00,,,0.00,weatherlink.com 1.10,2013-05-17 06:33:00,
2013-05-17 01:48:00,59.4,41.0,29.89,ESE,109,3.0,8.0,51,0.00,,,0.00,weatherlink.com 1.10,2013-05-17 06:48:00,
2013-05-17 02:00:00,59.4,40.8,29.89,ESE,112,4.0,8.0,50,0.00,,OVC180,0.00,VWS V14.01,2013-05-17 07:00:00,
2013-05-17 02:03:00,59.4,41.0,29.89,ESE,119,4.0,6.0,51,0.00,,,0.00,weatherlink.com 1.10,2013-05-17 07:03:00,
2013-05-17 02:18:00,59.4,42.0,29.89,East,92,2.0,3.0,52,0.00,,,0.00,weatherlink.com 1.10,2013-05-17 07:18:00,
2013-05-17 02:30:00,59.4,41.8,29.90,East,90,2.0,5.0,52,0.00,,OVC180,0.00,VWS V14.01,2013-05-17 07:30:00,
2013-05-17 02:33:00,59.4,41.0,29.89,ESE,103,3.0,6.0,51,0.00,,,0.00,weatherlink.com 1.10,2013-05-17 07:33:00,
2013-05-17 02:48:00,59.3,41.0,29.89,East,90,3.0,4.0,52,0.00,,,0.00,weatherlink.com 1.10,2013-05-17 07:48:00,
2013-05-17 03:00:00,59.3,41.7,29.89,East,90,3.0,7.0,52,0.00,,OVC180,0.00,VWS V14.01,2013-05-17 08:00:00,
2013-05-17 03:03:00,59.3,41.0,29.89,East,98,3.0,7.0,52,0.00,,,0.00,weatherlink.com 1.10,2013-05-17 08:03:00,
2013-05-17 03:18:00,59.6,41.0,29.89,East,86,5.0,7.0,51,0.00,,,0.00,weatherlink.com 1.10,2013-05-17 08:18:00,
2013-05-17 03:30:00,59.8,41.7,29.89,East,90,4.0,8.0,51,0.00,,OVC180,0.00,VWS V14.01,2013-05-17 08:30:00,
2013-05-17 03:33:00,59.9,41.0,29.89,East,90,2.0,7.0,50,0.00,,,0.00,weatherlink.com 1.10,2013-05-17 08:33:00,
2013-05-17 03:48:00,60.1,41.0,29.89,East,82,2.0,11.0,50,0.00,,,0.00,weatherlink.com 1.10,2013-05-17 08:48:00,
2013-05-17 04:00:00,60.3,41.1,29.89,East,90,4.0,14.0,49,0.00,,OVC180,0.00,VWS V14.01,2013-05-17 09:00:00,
2013-05-17 04:03:00,60.3,41.0,29.89,ESE,111,4.0,7.0,50,0.00,,,0.00,weatherlink.com 1.10,2013-05-17 09:03:00,
2013-05-17 04:18:00,59.8,41.0,29.89,ENE,62,4.0,8.0,51,0.00,,,0.00,weatherlink.com 1.10,2013-05-17 09:18:00,
2013-05-17 04:30:00,59.3,41.2,29.89,East,90,5.0,9.0,51,0.00,,OVC180,0.00,VWS V14.01,2013-05-17 09:30:00,
2013-05-17 04:33:00,59.3,41.0,29.89,East,86,6.0,8.0,51,0.00,,,0.00,weatherlink.com 1.10,2013-05-17 09:33:00,
2013-05-17 04:48:00,58.7,41.0,29.89,East,84,5.0,9.0,53,0.00,,,0.00,weatherlink.com 1.10,2013-05-17 09:48:00,
2013-05-17 05:00:00,58.5,41.5,29.90,East,90,5.0,9.0,53,0.00,,OVC180,0.00,VWS V14.01,2013-05-17 10:00:00,
2013-05-17 05:03:00,58.6,41.0,29.90,East,82,1.0,7.0,53,0.00,,,0.00,weatherlink.com 1.10,2013-05-17 10:03:00,
2013-05-17 05:18:00,58.9,42.0,29.91,East,97,0.0,2.0,54,0.00,,,0.00,weatherlink.com 1.10,2013-05-17 10:18:00,
2013-05-17 05:30:00,59.0,42.4,29.91,East,90,1.0,7.0,54,0.00,,OVC180,0.00,VWS V14.01,2013-05-17 10:30:00,
2013-05-17 05:33:00,59.0,42.0,29.90,ENE,78,1.0,2.0,54,0.00,,,0.00,weatherlink.com 1.10,2013-05-17 10:33:00,
2013-05-17 05:48:00,59.0,43.0,29.91,ESE,116,1.0,3.0,56,0.00,,,0.00,weatherlink.com 1.10,2013-05-17 10:48:00,
2013-05-17 06:00:00,59.5,43.3,29.91,East,90,1.0,5.0,55,0.00,,OVC180,0.00,VWS V14.01,2013-05-17 11:00:00,
2013-05-17 06:03:00,59.6,43.0,29.91,East,96,5.0,5.0,55,0.00,,,0.00,weatherlink.com 1.10,2013-05-17 11:03:00,
2013-05-17 06:18:00,59.5,44.0,29.92,East,84,2.0,2.0,56,0.00,,,0.00,weatherlink.com 1.10,2013-05-17 11:18:00,
2013-05-17 06:30:00,59.5,43.8,29.92,East,90,1.0,5.0,56,0.00,,OVC180,0.00,VWS V14.01,2013-05-17 11:30:00,
2013-05-17 06:33:00,59.7,44.0,29.92,East,97,1.0,2.0,56,0.00,,,0.00,weatherlink.com 1.10,2013-05-17 11:33:00,
2013-05-17 06:48:00,59.7,45.0,29.92,East,79,1.0,2.0,58,0.00,,,0.00,weatherlink.com 1.10,2013-05-17 11:48:00,
2013-05-17 07:04:00,59.8,46.0,29.92,ESE,110,0.0,1.0,60,0.00,,,0.00,weatherlink.com 1.10,2013-05-17 12:04:00,
2013-05-17 07:11:00,60.0,46.1,29.92,ESE,116,1.0,1.0,60,0.00,,OVC095,0.00,VWS V14.01,2013-05-17 12:11:00,
2013-05-17 07:16:00,60.7,46.3,29.92,East,92,1.0,2.0,59,0.00,,OVC095,0.00,VWS V14.01,2013-05-17 12:16:00,
2013-05-17 07:21:00,61.4,47.0,29.92,ENE,74,1.0,2.0,59,0.00,,OVC095,0.00,VWS V14.01,2013-05-17 12:21:00,
2013-05-17 07:26:00,61.8,46.9,29.93,ENE,77,1.0,3.0,58,0.00,,OVC095,0.00,VWS V14.01,2013-05-17 12:26:00,
2013-05-17 07:31:00,62.3,46.9,29.93,SE,126,1.0,3.0,57,0.00,,OVC095,0.00,VWS V14.01,2013-05-17 12:31:00,
2013-05-17 07:36:00,63.0,46.6,29.93,SE,129,2.0,5.0,55,0.00,,OVC095,0.00,VWS V14.01,2013-05-17 12:36:00,
2013-05-17 07:41:00,63.7,46.8,29.93,SSE,148,2.0,5.0,54,0.00,,OVC095,0.00,VWS V14.01,2013-05-17 12:41:00,
2013-05-17 07:46:00,64.4,46.9,29.93,East,90,3.0,5.0,53,0.00,,OVC095,0.00,VWS V14.01,2013-05-17 12:46:00,
2013-05-17 07:51:00,65.0,47.5,29.93,SSE,162,1.0,7.0,53,0.00,,OVC250,0.00,VWS V14.01,2013-05-17 12:51:00,
2013-05-17 07:56:00,65.5,47.4,29.93,East,99,2.0,7.0,52,0.00,,OVC250,0.00,VWS V14.01,2013-05-17 12:56:00,
2013-05-17 08:01:00,66.0,47.9,29.93,East,96,1.0,1.0,52,0.00,,OVC250,0.00,VWS V14.01,2013-05-17 13:01:00,
2013-05-17 08:06:00,66.5,48.3,29.93,ESE,117,3.0,4.0,52,0.00,,OVC250,0.00,VWS V14.01,2013-05-17 13:06:00,
2013-05-17 08:11:00,66.9,49.2,29.93,ESE,121,1.0,4.0,53,0.00,,OVC250,0.00,VWS V14.01,2013-05-17 13:11:00,
2013-05-17 08:16:00,67.5,48.8,29.93,SE,128,0.0,4.0,51,0.00,,OVC250,0.00,VWS V14.01,2013-05-17 13:16:00,
2013-05-17 08:21:00,68.0,50.8,29.94,ESE,112,0.0,4.0,54,0.00,,OVC250,0.00,VWS V14.01,2013-05-17 13:21:00,
2013-05-17 08:26:00,68.2,49.9,29.93,SE,143,2.0,4.0,52,0.00,,OVC250,0.00,VWS V14.01,2013-05-17 13:26:00,
2013-05-17 08:31:00,68.1,50.3,29.93,SE,128,4.0,4.0,53,0.00,,OVC250,0.00,VWS V14.01,2013-05-17 13:31:00,
2013-05-17 08:36:00,68.2,50.9,29.93,East,92,2.0,4.0,54,0.00,,OVC250,0.00,VWS V14.01,2013-05-17 13:36:00,
2013-05-17 08:41:00,68.6,51.8,29.94,ESE,110,3.0,5.0,55,0.00,,OVC250,0.00,VWS V14.01,2013-05-17 13:41:00,
2013-05-17 08:46:00,69.0,51.7,29.94,ESE,107,2.0,5.0,54,0.00,,BKN250,0.00,VWS V14.01,2013-05-17 13:46:00,
2013-05-17 08:51:00,69.6,52.2,29.94,South,175,1.0,5.0,54,0.00,,BKN250,0.00,VWS V14.01,2013-05-17 13:51:00,
2013-05-17 08:56:00,70.3,53.4,29.94,South,176,1.0,5.0,55,0.00,,BKN250,0.00,VWS V14.01,2013-05-17 13:56:00,
2013-05-17 09:01:00,70.6,54.6,29.94,SSE,159,3.0,3.0,57,0.00,,BKN250,0.00,VWS V14.01,2013-05-17 14:01:00,
2013-05-17 09:06:00,71.2,54.7,29.94,South,186,2.0,3.0,56,0.00,,BKN250,0.00,VWS V14.01,2013-05-17 14:06:00,
2013-05-17 09:11:00,71.6,54.6,29.94,SSE,149,1.0,3.0,55,0.00,,BKN250,0.00,VWS V14.01,2013-05-17 14:11:00,
2013-05-17 09:16:00,71.8,54.8,29.95,WSW,248,0.0,3.0,55,0.00,,BKN250,0.00,VWS V14.01,2013-05-17 14:16:00,
2013-05-17 09:21:00,72.0,55.0,29.95,West,273,0.0,3.0,55,0.00,,BKN250,0.00,VWS V14.01,2013-05-17 14:21:00,
2013-05-17 09:26:00,72.5,55.4,29.95,West,279,3.0,3.0,55,0.00,,BKN250,0.00,VWS V14.01,2013-05-17 14:26:00,
2013-05-17 09:31:00,73.0,55.9,29.95,NNW,327,4.0,4.0,55,0.00,,BKN250,0.00,VWS V14.01,2013-05-17 14:31:00,
2013-05-17 09:36:00,73.3,55.2,29.94,WNW,299,0.0,4.0,53,0.00,,BKN250,0.00,VWS V14.01,2013-05-17 14:36:00,
2013-05-17 09:41:00,73.9,55.7,29.94,NNE,19,1.0,4.0,53,0.00,,BKN250,0.00,VWS V14.01,2013-05-17 14:41:00,
2013-05-17 09:45:00,74.2,56.0,29.94,NE,47,0.0,4.0,53,0.00,,BKN250,0.00,VWS V14.01,2013-05-17 14:45:00,
2013-05-17 09:50:00,74.1,54.8,29.94,East,85,0.0,4.0,51,0.00,,BKN250,0.00,VWS V14.01,2013-05-17 14:50:00,
2013-05-17 09:56:00,73.7,55.0,29.94,ESE,113,1.0,4.0,52,0.00,,BKN250,0.00,VWS V14.01,2013-05-17 14:56:00,
2013-05-17 10:01:00,73.8,55.6,29.94,ENE,61,2.0,2.0,53,0.00,,BKN250,0.00,VWS V14.01,2013-05-17 15:01:00,
2013-05-17 10:06:00,73.8,55.6,29.94,West,281,2.0,3.0,53,0.00,,BKN250,0.00,VWS V14.01,2013-05-17 15:06:00,
2013-05-17 10:10:00,73.7,56.0,29.94,NE,51,1.0,4.0,54,0.00,,BKN250,0.00,VWS V14.01,2013-05-17 15:10:00,
2013-05-17 10:15:00,73.7,56.0,29.94,NW,314,2.0,5.0,54,0.00,,BKN250,0.00,VWS V14.01,2013-05-17 15:15:00,
2013-05-17 10:20:00,73.7,55.5,29.94,NE,39,3.0,5.0,53,0.00,,BKN250,0.00,VWS V14.01,2013-05-17 15:20:00,
2013-05-17 10:25:00,74.3,57.1,29.94,NNE,17,0.0,5.0,55,0.00,,BKN250,0.00,VWS V14.01,2013-05-17 15:25:00,
2013-05-17 10:30:00,75.0,56.7,29.94,NE,40,1.0,1.0,53,0.00,,BKN250,0.00,VWS V14.01,2013-05-17 15:30:00,
2013-05-17 10:35:00,74.6,55.8,29.94,North,11,1.0,9.0,52,0.00,,BKN250,0.00,VWS V14.01,2013-05-17 15:35:00,
2013-05-17 10:40:00,75.3,55.4,29.94,NNW,340,4.0,9.0,50,0.00,,BKN250,0.00,VWS V14.01,2013-05-17 15:40:00,
2013-05-17 10:45:00,75.5,55.6,29.94,NE,35,0.0,9.0,50,0.00,,BKN250,0.00,VWS V14.01,2013-05-17 15:45:00,
2013-05-17 10:50:00,75.7,55.8,29.94,NE,44,3.0,9.0,50,0.00,,BKN250,0.00,VWS V14.01,2013-05-17 15:50:00,
2013-05-17 10:55:00,75.2,54.8,29.94,NNE,27,2.0,9.0,49,0.00,,BKN250,0.00,VWS V14.01,2013-05-17 15:55:00,
2013-05-17 11:00:00,75.0,55.7,29.94,NE,38,3.0,5.0,51,0.00,,BKN250,0.00,VWS V14.01,2013-05-17 16:00:00,
2013-05-17 11:05:00,74.8,55.5,29.95,East,90,6.0,9.0,51,0.00,,BKN250,0.00,VWS V14.01,2013-05-17 16:05:00,
2013-05-17 11:10:00,74.4,55.1,29.95,ENE,68,5.0,9.0,51,0.00,,BKN250,0.00,VWS V14.01,2013-05-17 16:10:00,
2013-05-17 11:15:00,74.0,55.3,29.94,East,80,6.0,13.0,52,0.00,,BKN250,0.00,VWS V14.01,2013-05-17 16:15:00,
2013-05-17 11:20:00,74.3,56.1,29.94,NW,326,4.0,13.0,53,0.00,,BKN250,0.00,VWS V14.01,2013-05-17 16:20:00,
2013-05-17 11:25:00,74.6,55.8,29.94,ENE,71,5.0,13.0,52,0.00,,BKN250,0.00,VWS V14.01,2013-05-17 16:25:00,
2013-05-17 11:30:00,74.9,55.6,29.94,NE,51,5.0,8.0,51,0.00,,BKN250,0.00,VWS V14.01,2013-05-17 16:30:00,
2013-05-17 11:35:00,75.3,55.9,29.94,NNE,30,3.0,8.0,51,0.00,,BKN250,0.00,VWS V14.01,2013-05-17 16:35:00,
2013-05-17 11:40:00,75.8,55.9,29.94,ENE,74,4.0,13.0,50,0.00,,BKN250,0.00,VWS V14.01,2013-05-17 16:40:00,
2013-05-17 11:45:00,75.4,56.0,29.94,NNW,344,4.0,14.0,51,0.00,,OVC250,0.00,VWS V14.01,2013-05-17 16:45:00,
2013-05-17 11:50:00,75.1,54.7,29.94,NNE,16,10.0,16.0,49,0.00,,OVC250,0.00,VWS V14.01,2013-05-17 16:50:00,
2013-05-17 11:55:00,73.8,52.9,29.94,NW,314,13.0,25.0,48,0.00,,OVC250,0.00,VWS V14.01,2013-05-17 16:55:00,
2013-05-17 12:00:00,73.2,53.5,29.94,ENE,58,8.0,13.0,50,0.00,,OVC250,0.00,VWS V14.01,2013-05-17 17:00:00,
2013-05-17 12:05:00,73.4,54.7,29.94,NE,49,10.0,14.0,52,0.00,,OVC250,0.00,VWS V14.01,2013-05-17 17:05:00,
2013-05-17 12:10:00,73.0,54.9,29.94,NE,39,6.0,16.0,53,0.00,,OVC250,0.00,VWS V14.01,2013-05-17 17:10:00,
2013-05-17 12:15:00,72.9,53.7,29.94,NE,55,3.0,17.0,51,0.00,,OVC250,0.00,VWS V14.01,2013-05-17 17:15:00,
2013-05-17 12:20:00,72.8,54.2,29.95,ENE,73,8.0,17.0,52,0.00,,OVC250,0.00,VWS V14.01,2013-05-17 17:20:00,
2013-05-17 12:25:00,72.4,54.3,29.94,North,355,5.0,17.0,53,0.00,,OVC250,0.00,VWS V14.01,2013-05-17 17:25:00,
2013-05-17 12:30:00,72.2,54.1,29.94,ENE,72,7.0,10.0,53,0.00,,OVC250,0.00,VWS V14.01,2013-05-17 17:30:00,
2013-05-17 12:35:00,71.8,53.8,29.94,East,83,16.0,16.0,53,0.00,,OVC250,0.00,VWS V14.01,2013-05-17 17:35:00,
2013-05-17 12:40:00,71.3,53.8,29.94,ENE,77,10.0,16.0,54,0.00,,OVC250,0.00,VWS V14.01,2013-05-17 17:40:00,
2013-05-17 12:45:00,70.8,53.3,29.94,ENE,73,12.0,18.0,54,0.00,,OVC250,0.00,VWS V14.01,2013-05-17 17:45:00,
2013-05-17 12:50:00,70.6,53.7,29.95,East,81,7.0,18.0,55,0.00,,OVC250,0.00,VWS V14.01,2013-05-17 17:50:00,
2013-05-17 12:55:00,70.2,53.8,29.95,East,81,16.0,18.0,56,0.00,,OVC250,0.00,VWS V14.01,2013-05-17 17:55:00,
2013-05-17 13:00:00,69.8,53.4,29.94,NE,55,12.0,12.0,56,0.00,,OVC250,0.00,VWS V14.01,2013-05-17 18:00:00,
2013-05-17 13:05:00,69.6,52.7,29.95,East,97,13.0,14.0,55,0.00,,OVC250,0.00,VWS V14.01,2013-05-17 18:05:00,
2013-05-17 13:10:00,69.2,52.8,29.95,ENE,76,8.0,14.0,56,0.00,,OVC250,0.00,VWS V14.01,2013-05-17 18:10:00,
2013-05-17 13:15:00,68.7,52.4,29.95,ENE,67,9.0,14.0,56,0.00,,OVC250,0.00,VWS V14.01,2013-05-17 18:15:00,
2013-05-17 13:20:00,68.6,52.3,29.95,ENE,69,13.0,15.0,56,0.00,,OVC250,0.00,VWS V14.01,2013-05-17 18:20:00,
2013-05-17 13:25:00,69.0,52.7,29.95,ENE,67,8.0,17.0,56,0.00,,OVC250,0.00,VWS V14.01,2013-05-17 18:25:00,
2013-05-17 13:30:00,68.9,52.6,29.95,ENE,72,14.0,14.0,56,0.00,,OVC250,0.00,VWS V14.01,2013-05-17 18:30:00,
2013-05-17 13:35:00,68.6,51.8,29.95,ENE,67,16.0,16.0,55,0.00,,OVC250,0.00,VWS V14.01,2013-05-17 18:35:00,
2013-05-17 13:40:00,68.7,52.4,29.95,ENE,69,9.0,16.0,56,0.00,,OVC250,0.00,VWS V14.01,2013-05-17 18:40:00,
2013-05-17 13:45:00,68.4,52.1,29.94,ENE,69,13.0,16.0,56,0.00,,OVC250,0.00,VWS V14.01,2013-05-17 18:45:00,
2013-05-17 13:50:00,68.6,52.3,29.95,ESE,103,8.0,16.0,56,0.00,,OVC250,0.00,VWS V14.01,2013-05-17 18:50:00,
2013-05-17 13:55:00,68.8,52.0,29.94,ENE,70,7.0,16.0,55,0.00,,OVC250,0.00,VWS V14.01,2013-05-17 18:55:00,
2013-05-17 14:00:00,69.4,53.0,29.94,NE,34,8.0,11.0,56,0.00,,OVC250,0.00,VWS V14.01,2013-05-17 19:00:00,
2013-05-17 14:12:00,69.6,53.0,29.94,ENE,75,17.0,17.0,55,0.00,,,0.00,weatherlink.com 1.10,2013-05-17 19:12:00,
2013-05-17 14:27:00,70.4,53.0,29.93,ENE,77,4.0,14.0,54,0.00,,,0.00,weatherlink.com 1.10,2013-05-17 19:27:00,
2013-05-17 14:30:00,70.3,52.4,29.94,East,88,11.0,11.0,53,0.00,,OVC250,0.00,VWS V14.01,2013-05-17 19:30:00,
2013-05-17 14:32:00,70.1,52.7,29.94,NE,53,7.0,14.0,54,0.00,,OVC250,0.00,VWS V14.01,2013-05-17 19:32:00,
2013-05-17 14:37:00,69.7,52.3,29.94,ENE,74,7.0,16.0,54,0.00,,OVC250,0.00,VWS V14.01,2013-05-17 19:37:00,
2013-05-17 14:42:00,69.7,52.3,29.94,ENE,72,13.0,16.0,54,0.00,,OVC250,0.00,VWS V14.01,2013-05-17 19:42:00,
2013-05-17 14:47:00,69.6,52.2,29.94,ENE,74,7.0,17.0,54,0.00,,OVC250,0.00,VWS V14.01,2013-05-17 19:47:00,
2013-05-17 14:52:00,69.3,52.0,29.94,ENE,75,11.0,20.0,54,0.00,,OVC250,0.00,VWS V14.01,2013-05-17 19:52:00,
2013-05-17 14:57:00,69.1,51.8,29.94,ENE,61,10.0,20.0,54,0.00,,OVC250,0.00,VWS V14.01,2013-05-17 19:57:00,
2013-05-17 15:00:00,68.9,51.6,29.94,NNE,25,12.0,20.0,54,0.00,,OVC250,0.00,VWS V14.01,2013-05-17 20:00:00,
2013-05-17 15:02:00,68.8,51.5,29.93,NE,54,6.0,12.0,54,0.00,,OVC250,0.00,VWS V14.01,2013-05-17 20:02:00,
2013-05-17 15:07:00,69.0,51.7,29.93,ENE,61,10.0,15.0,54,0.00,,OVC250,0.00,VWS V14.01,2013-05-17 20:07:00,
2013-05-17 15:12:00,69.8,51.9,29.93,East,94,17.0,17.0,53,0.00,,OVC250,0.00,VWS V14.01,2013-05-17 20:12:00,
2013-05-17 15:17:00,70.3,51.9,29.93,NE,43,12.0,17.0,52,0.00,,OVC250,0.00,VWS V14.01,2013-05-17 20:17:00,
2013-05-17 15:22:00,70.3,51.3,29.93,ESE,107,10.0,17.0,51,0.00,,OVC250,0.00,VWS V14.01,2013-05-17 20:22:00,
2013-05-17 15:27:00,69.9,51.0,29.93,ENE,57,9.0,19.0,51,0.00,,OVC250,0.00,VWS V14.01,2013-05-17 20:27:00,
2013-05-17 15:30:00,69.9,51.5,29.92,ENE,62,14.0,19.0,52,0.00,,OVC250,0.00,VWS V14.01,2013-05-17 20:30:00,
2013-05-17 15:32:00,70.0,51.1,29.92,ENE,66,8.0,14.0,51,0.00,,OVC250,0.00,VWS V14.01,2013-05-17 20:32:00,
2013-05-17 15:37:00,70.0,50.5,29.92,ENE,74,4.0,16.0,50,0.00,,OVC250,0.00,VWS V14.01,2013-05-17 20:37:00,
2013-05-17 15:42:00,70.2,51.2,29.92,ENE,77,3.0,16.0,51,0.00,,OVC250,0.00,VWS V14.01,2013-05-17 20:42:00,
2013-05-17 15:47:00,70.2,51.2,29.92,ESE,111,14.0,16.0,51,0.00,,OVC250,0.00,VWS V14.01,2013-05-17 20:47:00,
2013-05-17 15:52:00,70.1,51.2,29.92,ENE,78,9.0,16.0,51,0.00,,OVC250,0.00,VWS V14.01,2013-05-17 20:52:00,
2013-05-17 15:57:00,70.1,51.2,29.92,ENE,69,4.0,16.0,51,0.00,,OVC250,0.00,VWS V14.01,2013-05-17 20:57:00,
2013-05-17 16:00:00,70.1,51.2,29.92,ENE,72,4.0,16.0,51,0.00,,OVC250,0.00,VWS V14.01,2013-05-17 21:00:00,
2013-05-17 16:02:00,70.1,51.2,29.92,NE,55,4.0,11.0,51,0.00,,OVC250,0.00,VWS V14.01,2013-05-17 21:02:00,
2013-05-17 16:07:00,70.1,51.2,29.92,ESE,107,8.0,16.0,51,0.00,,OVC250,0.00,VWS V14.01,2013-05-17 21:07:00,
2013-05-17 16:12:00,70.1,51.2,29.92,ENE,78,5.0,16.0,51,0.00,,OVC250,0.00,VWS V14.01,2013-05-17 21:12:00,
2013-05-17 16:17:00,70.0,51.1,29.92,East,79,13.0,16.0,51,0.00,,OVC250,0.00,VWS V14.01,2013-05-17 21:17:00,
2013-05-17 16:22:00,69.5,50.6,29.93,ENE,70,10.0,16.0,51,0.00,,OVC250,0.00,VWS V14.01,2013-05-17 21:22:00,
2013-05-17 16:27:00,69.2,50.3,29.93,ESE,117,9.0,17.0,51,0.00,,OVC250,0.00,VWS V14.01,2013-05-17 21:27:00,
2013-05-17 16:30:00,69.1,50.8,29.93,ESE,109,9.0,17.0,52,0.00,,OVC250,0.00,VWS V14.01,2013-05-17 21:30:00,
2013-05-17 16:32:00,69.0,50.1,29.93,ESE,108,12.0,14.0,51,0.00,,OVC250,0.00,VWS V14.01,2013-05-17 21:32:00,
2013-05-17 16:37:00,68.8,50.0,29.94,ENE,61,3.0,14.0,51,0.00,,OVC250,0.00,VWS V14.01,2013-05-17 21:37:00,
2013-05-17 16:42:00,68.7,50.4,29.93,ENE,67,5.0,14.0,52,0.00,,OVC250,0.00,VWS V14.01,2013-05-17 21:42:00,
2013-05-17 16:47:00,68.8,50.5,29.94,East,82,5.0,14.0,52,0.00,,OVC250,0.00,VWS V14.01,2013-05-17 21:47:00,
2013-05-17 16:52:00,68.8,50.5,29.94,ENE,66,10.0,14.0,52,0.00,,OVC250,0.00,VWS V14.01,2013-05-17 21:52:00,
2013-05-17 16:57:00,68.8,51.0,29.94,ENE,78,7.0,14.0,53,0.00,,OVC250,0.00,VWS V14.01,2013-05-17 21:57:00,
2013-05-17 17:00:00,68.9,51.1,29.94,East,90,6.0,14.0,53,0.00,,OVC250,0.00,VWS V14.01,2013-05-17 22:00:00,
2013-05-17 17:02:00,69.0,51.2,29.94,East,100,9.0,11.0,53,0.00,,OVC250,0.00,VWS V14.01,2013-05-17 22:02:00,
2013-05-17 17:07:00,68.8,51.0,29.94,ENE,71,11.0,15.0,53,0.00,,OVC250,0.00,VWS V14.01,2013-05-17 22:07:00,
2013-05-17 17:12:00,68.8,50.5,29.94,SE,130,5.0,15.0,52,0.00,,OVC250,0.00,VWS V14.01,2013-05-17 22:12:00,
2013-05-17 17:17:00,68.7,50.9,29.95,East,85,11.0,16.0,53,0.00,,OVC250,0.00,VWS V14.01,2013-05-17 22:17:00,
2013-05-17 17:22:00,68.6,51.3,29.95,ESE,114,9.0,16.0,54,0.00,,OVC250,0.00,VWS V14.01,2013-05-17 22:22:00,
2013-05-17 17:27:00,68.6,50.8,29.95,East,88,8.0,17.0,53,0.00,,OVC250,0.00,VWS V14.01,2013-05-17 22:27:00,
2013-05-17 17:30:00,68.5,50.7,29.94,ESE,104,12.0,18.0,53,0.00,,OVC250,0.00,VWS V14.01,2013-05-17 22:30:00,
2013-05-17 17:32:00,68.4,50.6,29.95,ESE,105,13.0,16.0,53,0.00,,OVC250,0.00,VWS V14.01,2013-05-17 22:32:00,
2013-05-17 17:37:00,68.2,50.9,29.95,ESE,108,10.0,17.0,54,0.00,,OVC250,0.00,VWS V14.01,2013-05-17 22:37:00,
2013-05-17 17:42:00,68.1,50.8,29.95,East,94,21.0,21.0,54,0.00,,OVC080,0.00,VWS V14.01,2013-05-17 22:42:00,
2013-05-17 17:47:00,68.1,51.3,29.95,ESE,109,8.0,21.0,55,0.00,,OVC080,0.00,VWS V14.01,2013-05-17 22:47:00,
2013-05-17 17:52:00,68.0,50.8,29.95,East,90,6.0,21.0,54,0.00,,OVC080,0.00,VWS V14.01,2013-05-17 22:52:00,
2013-05-17 17:57:00,67.6,50.4,29.95,ESE,123,9.0,21.0,54,0.00,,OVC080,0.00,VWS V14.01,2013-05-17 22:57:00,
2013-05-17 18:00:00,67.3,50.6,29.95,ESE,115,7.0,21.0,55,0.00,,OVC250,0.00,VWS V14.01,2013-05-17 23:00:00,
2013-05-17 18:02:00,67.2,50.5,29.95,ESE,105,8.0,13.0,55,0.00,,OVC080,0.00,VWS V14.01,2013-05-17 23:02:00,
2013-05-17 18:07:00,67.2,50.5,29.95,ESE,106,5.0,13.0,55,0.00,,OVC080,0.00,VWS V14.01,2013-05-17 23:07:00,
2013-05-17 18:12:00,67.3,50.6,29.95,East,81,3.0,13.0,55,0.00,,OVC080,0.00,VWS V14.01,2013-05-17 23:12:00,
2013-05-17 18:17:00,67.0,49.8,29.95,ENE,69,14.0,15.0,54,0.00,,OVC080,0.00,VWS V14.01,2013-05-17 23:17:00,
2013-05-17 18:22:00,66.8,50.1,29.95,ENE,65,10.0,15.0,55,0.00,,OVC080,0.00,VWS V14.01,2013-05-17 23:22:00,
2013-05-17 18:27:00,66.6,50.0,29.94,ENE,67,7.0,15.0,55,0.00,,OVC080,0.00,VWS V14.01,2013-05-17 23:27:00,
2013-05-17 18:30:00,66.3,49.7,29.94,ESE,103,14.0,15.0,55,0.00,,OVC250,0.00,VWS V14.01,2013-05-17 23:30:00,
2013-05-17 18:32:00,66.3,49.7,29.95,ENE,74,12.0,14.0,55,0.00,,OVC080,0.00,VWS V14.01,2013-05-17 23:32:00,
2013-05-17 18:37:00,66.0,49.4,29.94,East,89,9.0,14.0,55,0.00,,OVC080,0.00,VWS V14.01,2013-05-17 23:37:00,
2013-05-17 18:42:00,65.9,49.3,29.94,ESE,107,7.0,17.0,55,0.00,,OVC250,0.00,VWS V14.01,2013-05-17 23:42:00,
2013-05-17 18:47:00,65.8,49.7,29.94,ESE,106,13.0,18.0,56,0.00,,OVC250,0.00,VWS V14.01,2013-05-17 23:47:00,
2013-05-17 18:52:00,65.8,49.2,29.94,ESE,106,11.0,18.0,55,0.00,,OVC250,0.00,VWS V14.01,2013-05-17 23:52:00,
2013-05-17 18:57:00,65.9,49.8,29.94,ENE,77,10.0,18.0,56,0.00,,OVC250,0.00,VWS V14.01,2013-05-17 23:57:00,
2013-05-17 19:00:00,66.0,49.4,29.94,East,94,16.0,18.0,55,0.00,,OVC250,0.00,VWS V14.01,2013-05-18 00:00:00,
2013-05-17 19:02:00,66.0,49.4,29.94,East,90,9.0,16.0,55,0.00,,OVC250,0.00,VWS V14.01,2013-05-18 00:02:00,
2013-05-17 19:07:00,66.1,49.5,29.94,ENE,57,8.0,16.0,55,0.00,,OVC250,0.00,VWS V14.01,2013-05-18 00:07:00,
2013-05-17 19:12:00,66.0,49.4,29.95,ESE,103,7.0,16.0,55,0.00,,OVC250,0.00,VWS V14.01,2013-05-18 00:12:00,
2013-05-17 19:17:00,65.9,49.3,29.95,East,98,13.0,16.0,55,0.00,,OVC250,0.00,VWS V14.01,2013-05-18 00:17:00,
2013-05-17 19:22:00,65.5,48.9,29.95,East,92,8.0,16.0,55,0.00,,OVC250,0.00,VWS V14.01,2013-05-18 00:22:00,
2013-05-17 19:27:00,65.3,49.2,29.95,East,94,13.0,16.0,56,0.00,,OVC250,0.00,VWS V14.01,2013-05-18 00:27:00,
2013-05-17 19:30:00,65.2,49.1,29.95,ENE,58,8.0,16.0,56,0.00,,OVC250,0.00,VWS V14.01,2013-05-18 00:30:00,
2013-05-17 19:32:00,65.1,49.0,29.95,East,80,10.0,13.0,56,0.00,,OVC250,0.00,VWS V14.01,2013-05-18 00:32:00,
2013-05-17 19:37:00,64.7,48.7,29.95,ESE,105,13.0,16.0,56,0.00,,OVC250,0.00,VWS V14.01,2013-05-18 00:37:00,
2013-05-17 19:42:00,64.5,48.5,29.96,ENE,69,7.0,16.0,56,0.00,,OVC250,0.00,VWS V14.01,2013-05-18 00:42:00,
2013-05-17 19:47:00,64.3,48.8,29.96,ENE,78,9.0,16.0,57,0.00,,OVC250,0.00,VWS V14.01,2013-05-18 00:47:00,
2013-05-17 19:52:00,64.1,48.6,29.96,ESE,113,10.0,16.0,57,0.00,,OVC250,0.00,VWS V14.01,2013-05-18 00:52:00,
2013-05-17 19:57:00,64.1,48.6,29.95,East,94,10.0,16.0,57,0.00,,OVC250,0.00,VWS V14.01,2013-05-18 00:57:00,
2013-05-17 20:00:00,63.9,48.8,29.96,East,99,17.0,17.0,58,0.00,,OVC250,0.00,VWS V14.01,2013-05-18 01:00:00,
2013-05-17 20:02:00,63.9,48.8,29.96,East,96,8.0,17.0,58,0.00,,OVC250,0.00,VWS V14.01,2013-05-18 01:02:00,
2013-05-17 20:07:00,63.8,48.8,29.96,ENE,66,7.0,17.0,58,0.00,,OVC250,0.00,VWS V14.01,2013-05-18 01:07:00,
2013-05-17 20:12:00,63.5,48.5,29.96,SE,130,6.0,17.0,58,0.00,,OVC250,0.00,VWS V14.01,2013-05-18 01:12:00,
2013-05-17 20:29:00,62.9,49.0,29.96,ESE,113,4.0,12.0,60,0.00,,,0.00,weatherlink.com 1.10,2013-05-18 01:29:00,
2013-05-17 20:30:00,62.9,48.8,29.96,East,90,9.0,17.0,60,0.00,,OVC250,0.00,VWS V14.01,2013-05-18 01:30:00,
2013-05-17 20:44:00,62.3,49.0,29.96,East,92,13.0,13.0,62,0.00,,,0.00,weatherlink.com 1.10,2013-05-18 01:44:00,
2013-05-17 20:59:00,62.3,49.0,29.96,ENE,76,9.0,11.0,62,0.00,,,0.00,weatherlink.com 1.10,2013-05-18 01:59:00,
2013-05-17 21:00:00,62.3,49.1,29.97,East,90,7.0,15.0,62,0.00,,OVC250,0.00,VWS V14.01,2013-05-18 02:00:00,
2013-05-17 21:14:00,62.2,49.0,29.97,East,84,8.0,11.0,62,0.00,,,0.00,weatherlink.com 1.10,2013-05-18 02:14:00,
2013-05-17 21:29:00,62.0,49.0,29.97,East,94,7.0,13.0,62,0.00,,,0.00,weatherlink.com 1.10,2013-05-18 02:29:00,
2013-05-17 21:30:00,62.0,48.8,29.97,East,90,7.0,14.0,62,0.00,,OVC250,0.00,VWS V14.01,2013-05-18 02:30:00,
2013-05-17 21:44:00,61.9,49.0,29.97,East,97,7.0,13.0,62,0.00,,,0.00,weatherlink.com 1.10,2013-05-18 02:44:00,
2013-05-17 21:59:00,61.7,48.0,29.96,ESE,111,10.0,13.0,62,0.00,,,0.00,weatherlink.com 1.10,2013-05-18 02:59:00,
2013-05-17 22:00:00,61.7,48.6,29.97,East,90,7.0,15.0,62,0.00,,OVC250,0.00,VWS V14.01,2013-05-18 03:00:00,
2013-05-17 22:14:00,61.4,49.0,29.97,ENE,65,5.0,7.0,63,0.00,,,0.00,weatherlink.com 1.10,2013-05-18 03:14:00,
2013-05-17 22:29:00,61.3,48.0,29.96,East,87,5.0,7.0,62,0.00,,,0.00,weatherlink.com 1.10,2013-05-18 03:29:00,
2013-05-17 22:30:00,61.3,48.2,29.96,East,90,4.0,10.0,62,0.00,,OVC250,0.00,VWS V14.01,2013-05-18 03:30:00,
2013-05-17 22:44:00,61.2,48.0,29.96,ENE,74,5.0,7.0,63,0.00,,,0.00,weatherlink.com 1.10,2013-05-18 03:44:00,
2013-05-17 22:59:00,60.9,48.0,29.96,ENE,77,2.0,8.0,63,0.00,,,0.00,weatherlink.com 1.10,2013-05-18 03:59:00,
2013-05-17 23:00:00,60.8,48.1,29.96,East,90,4.0,9.0,63,0.00,,OVC250,0.00,VWS V14.01,2013-05-18 04:00:00,
2013-05-17 23:14:00,60.1,48.0,29.95,East,83,3.0,9.0,64,0.00,,,0.00,weatherlink.com 1.10,2013-05-18 04:14:00,
2013-05-17 23:29:00,59.5,48.0,29.95,East,98,2.0,5.0,65,0.00,,,0.00,weatherlink.com 1.10,2013-05-18 04:29:00,
2013-05-17 23:30:00,59.4,47.7,29.95,East,90,3.0,10.0,65,0.00,,OVC250,0.00,VWS V14.01,2013-05-18 04:30:00,
2013-05-17 23:44:00,58.8,47.0,29.94,SE,134,2.0,4.0,66,0.00,,,0.00,weatherlink.com 1.10,2013-05-18 04:44:00,